CheckWX is a tool to help pilots better visualize weather data.  It is not intended as a substitute for an official pre-flight weather briefing.

10:31:39 UTC

PANA METAR
Napakiak Airport
Napakiak, Alaska, USA
Current

2 hours ago

PANA 070856Z AUTO 25004KT 10SM OVC020 11/09 A3018 RMK AO2 SLP220 T01060089 401220089 51006 PWINO $
Observed
Jul-7 @ 08:56 UTC
Wind
  • 250° at 4 KTS
Visibility
10 SM
Flight Rules
MVFR
Cloud Levels
  • Overcast at 2,000' AGL
Dewpoint
C / 48°F
Humidity
88%
Altimeter
30.18" Hg
Pressure
1022.02 hPa
Previous

3 hours ago

PANA 070756Z AUTO 00000KT 10SM OVC022 11/09 A3018 RMK AO2 SLP218 T01060089 PWINO $
Observed
Jul-7 @ 07:56 UTC
Visibility
10 SM
Flight Rules
MVFR
Cloud Levels
  • Overcast at 2,200' AGL
Temperature
11°C / 52°F
Dewpoint
C / 48°F
Humidity
88%
Altimeter
30.18" Hg
Pressure
1022.02 hPa
Previous

4 hours ago

PANA 070656Z AUTO 00000KT 10SM OVC023 11/08 A3017 RMK AO2 SLP216 T01110083 PWINO $
Observed
Jul-7 @ 06:56 UTC
Visibility
10 SM
Flight Rules
MVFR
Cloud Levels
  • Overcast at 2,300' AGL
Temperature
11°C / 52°F
Dewpoint
C / 46°F
Humidity
82%
Altimeter
30.17" Hg
Pressure
1021.72 hPa